Time;durP1;ratioP1;P1;durP2;ratioP2;P2;SDS_P1;SDS_P2;PMS_P1;PMS_P2;Temp;Humidity;BMP_temperature;BMP_pressure;BME280_temperature;BME280_humidity;BME280_pressure;Samples;Min_cycle;Max_cycle;Signal;HPM_P1;HPM_P2
2021/08/01 00:00:30;;;;;;;20.15;8.60;;;;;;;17.41;73.79;98260.69;2182302;82;20983;-59
2021/08/01 00:03:32;;;;;;;23.77;9.20;;;;;;;17.33;73.70;98261.92;2163218;82;21057;-61
2021/08/01 00:06:33;;;;;;;21.70;8.95;;;;;;;17.34;73.71;98258.30;2182087;82;20955;-62
2021/08/01 00:09:33;;;;;;;22.15;9.00;;;;;;;17.36;73.85;98265.59;2182027;82;21007;-59
2021/08/01 00:12:34;;;;;;;23.15;9.30;;;;;;;17.40;73.83;98267.47;2181784;82;21584;-59
2021/08/01 00:15:34;;;;;;;23.80;9.43;;;;;;;17.31;74.17;98273.16;2182109;82;21003;-65
2021/08/01 00:18:35;;;;;;;21.87;9.43;;;;;;;17.11;74.19;98257.87;2182061;82;20963;-59
2021/08/01 00:21:35;;;;;;;21.60;8.50;;;;;;;17.19;74.33;98278.34;2181958;81;21525;-60
2021/08/01 00:24:36;;;;;;;21.70;8.60;;;;;;;17.18;74.25;98270.04;2181957;82;21014;-64
2021/08/01 00:27:36;;;;;;;25.15;8.95;;;;;;;17.12;74.35;98272.32;2182172;82;21094;-63
2021/08/01 00:30:37;;;;;;;24.32;10.78;;;;;;;17.07;74.52;98269.27;2182092;82;21061;-60
2021/08/01 00:33:37;;;;;;;21.48;8.10;;;;;;;17.08;74.67;98271.42;2182310;82;20975;-62
2021/08/01 00:36:37;;;;;;;22.22;8.18;;;;;;;17.03;74.46;98266.58;2181954;82;20939;-62
2021/08/01 00:39:38;;;;;;;22.15;8.45;;;;;;;17.00;74.64;98265.55;2181750;82;21070;-63
2021/08/01 00:42:38;;;;;;;20.40;8.23;;;;;;;16.99;74.74;98272.32;2181893;82;21433;-63
2021/08/01 00:45:39;;;;;;;20.00;6.87;;;;;;;16.95;74.35;98271.77;2181874;81;21030;-65
2021/08/01 00:48:39;;;;;;;22.52;9.50;;;;;;;16.96;74.37;98273.44;2182178;82;20935;-60
2021/08/01 00:51:40;;;;;;;24.45;9.68;;;;;;;16.97;74.53;98272.47;2181692;82;20998;-60
2021/08/01 00:54:40;;;;;;;22.52;9.18;;;;;;;16.89;74.88;98275.84;2182188;82;20974;-65
2021/08/01 00:57:41;;;;;;;21.12;8.25;;;;;;;16.85;74.75;98279.76;2182093;81;20974;-65
2021/08/01 01:03:44;;;;;;;22.17;9.08;;;;;;;16.72;74.77;98281.88;2162103;82;20982;-65
2021/08/01 01:06:44;;;;;;;24.95;10.32;;;;;;;16.66;74.80;98285.13;2181976;82;21034;-60
2021/08/01 01:09:45;;;;;;;24.18;10.45;;;;;;;16.64;75.46;98281.30;2181831;82;21105;-61
2021/08/01 01:12:45;;;;;;;26.42;9.68;;;;;;;16.59;75.47;98283.07;2182039;82;21469;-60
2021/08/01 01:15:46;;;;;;;25.02;8.90;;;;;;;16.58;74.56;98288.51;2182027;82;20975;-65
2021/08/01 01:18:46;;;;;;;23.45;9.65;;;;;;;16.49;74.51;98295.98;2182141;82;21066;-60
2021/08/01 01:21:47;;;;;;;25.08;10.08;;;;;;;16.46;75.10;98291.80;2182098;82;20982;-62
2021/08/01 01:24:48;;;;;;;24.05;9.50;;;;;;;16.35;75.52;98276.09;2182092;81;20997;-65
2021/08/01 01:27:48;;;;;;;19.82;4.85;;;;;;;16.35;75.52;98276.09;2182119;82;20983;-67
2021/08/01 01:30:49;;;;;;;15.93;4.80;;;;;;;16.27;75.28;98282.94;2181977;82;21018;-62
2021/08/01 01:33:49;;;;;;;45.28;5.72;;;;;;;16.02;75.72;98280.89;2181961;82;21138;-60
2021/08/01 01:36:49;;;;;;;30.37;6.35;;;;;;;15.98;75.70;98271.59;2182017;82;21463;-63
2021/08/01 01:39:50;;;;;;;28.45;7.28;;;;;;;15.88;76.28;98279.04;2181857;82;21529;-66
2021/08/01 01:42:50;;;;;;;21.60;8.65;;;;;;;15.83;76.93;98281.75;2181844;82;21007;-65
2021/08/01 01:45:51;;;;;;;23.90;10.15;;;;;;;15.88;77.05;98290.94;2181876;82;20998;-62
2021/08/01 01:48:51;;;;;;;21.87;8.40;;;;;;;16.00;77.37;98284.18;2171864;81;21015;-60
2021/08/01 01:51:52;;;;;;;26.70;10.45;;;;;;;15.96;76.82;98280.14;2171598;82;20998;-62
2021/08/01 01:54:52;;;;;;;24.32;10.50;;;;;;;15.90;77.13;98283.72;2172093;81;20971;-60
2021/08/01 01:57:53;;;;;;;24.40;10.15;;;;;;;15.99;77.26;98275.89;2172114;81;21477;-66
2021/08/01 02:00:53;;;;;;;24.65;10.35;;;;;;;15.98;76.92;98271.59;2171727;81;21022;-65
2021/08/01 02:03:53;;;;;;;25.52;11.35;;;;;;;15.90;76.45;98274.45;2172260;81;21021;-66
2021/08/01 02:06:54;;;;;;;26.95;11.33;;;;;;;15.87;76.40;98277.36;2172070;81;21013;-63
2021/08/01 02:09:55;;;;;;;32.78;6.08;;;;;;;15.87;76.62;98270.75;2172085;81;21033;-58
2021/08/01 02:12:55;;;;;;;21.65;7.25;;;;;;;15.84;76.04;98274.17;2171988;81;21089;-64
2021/08/01 02:15:56;;;;;;;25.25;5.72;;;;;;;15.66;75.86;98276.17;2172088;81;21525;-59
2021/08/01 02:18:57;;;;;;;40.88;5.80;;;;;;;15.62;76.67;98269.99;2172126;82;21566;-58
2021/08/01 02:21:58;;;;;;;14.73;4.95;;;;;;;15.53;76.12;98268.98;2172078;82;21086;-64
2021/08/01 02:24:58;;;;;;;32.40;4.67;;;;;;;15.38;75.85;98268.58;2172066;82;20966;-60
2021/08/01 02:27:59;;;;;;;24.92;5.60;;;;;;;15.31;76.05;98264.81;2172155;82;21053;-63
2021/08/01 02:30:59;;;;;;;22.82;7.60;;;;;;;15.25;76.63;98269.66;2171890;82;21073;-62
2021/08/01 02:37:02;;;;;;;21.33;8.03;;;;;;;15.21;76.70;98259.05;2162077;82;20963;-62
2021/08/01 02:40:02;;;;;;;20.72;5.17;;;;;;;15.17;77.00;98262.92;2172032;81;21010;-65
2021/08/01 02:43:03;;;;;;;19.42;5.33;;;;;;;15.11;76.70;98257.34;2172449;81;21046;-59
2021/08/01 02:46:03;;;;;;;31.50;4.97;;;;;;;15.14;76.55;98257.92;2172394;81;21073;-61
2021/08/01 02:49:04;;;;;;;20.90;3.10;;;;;;;15.10;76.61;98259.16;2181791;81;21041;-60
2021/08/01 02:52:04;;;;;;;17.60;4.53;;;;;;;15.00;76.51;98256.98;2181765;82;21046;-65
2021/08/01 02:55:05;;;;;;;15.35;4.35;;;;;;;14.94;76.95;98256.19;2181819;82;21101;-62
2021/08/01 02:58:05;;;;;;;19.67;4.97;;;;;;;14.90;77.08;98256.46;2182057;82;20982;-65
2021/08/01 03:01:06;;;;;;;20.85;6.83;;;;;;;14.92;77.38;98257.65;2181802;82;21001;-61
2021/08/01 03:04:06;;;;;;;21.15;6.17;;;;;;;14.93;77.18;98265.07;2181634;82;21516;-62
2021/08/01 03:07:07;;;;;;;21.75;7.87;;;;;;;14.94;77.04;98258.83;2182055;82;21074;-58
2021/08/01 03:10:08;;;;;;;22.15;8.48;;;;;;;14.94;76.87;98264.11;2182129;82;20997;-62
2021/08/01 03:13:09;;;;;;;23.57;8.48;;;;;;;14.95;76.90;98264.47;2182129;82;20962;-62
2021/08/01 03:16:10;;;;;;;21.97;7.90;;;;;;;14.98;76.87;98268.16;2181850;82;21019;-60
2021/08/01 03:19:10;;;;;;;23.18;9.78;;;;;;;14.95;76.90;98269.75;2182111;82;21022;-59
2021/08/01 03:22:10;;;;;;;26.45;10.98;;;;;;;14.91;76.89;98266.53;2181773;82;21006;-59
2021/08/01 03:25:11;;;;;;;25.27;10.93;;;;;;;14.87;77.08;98273.08;2181987;82;21049;-60
2021/08/01 03:31:14;;;;;;;;;;;;;;;14.93;77.52;98266.39;2165816;82;20966;-61
2021/08/01 03:34:14;;;;;;;25.85;10.70;;;;;;;14.93;77.50;98272.99;2182151;81;20104;-61
2021/08/01 03:37:15;;;;;;;23.73;10.13;;;;;;;14.90;77.46;98276.77;2182024;81;21521;-65
2021/08/01 03:40:15;;;;;;;26.33;10.53;;;;;;;15.00;77.75;98267.55;2181996;81;20990;-63
2021/08/01 03:43:16;;;;;;;24.10;10.58;;;;;;;15.11;77.43;98271.37;2182038;81;20986;-60
2021/08/01 03:46:16;;;;;;;19.37;6.90;;;;;;;15.22;77.16;98264.66;2182348;81;21002;-61
2021/08/01 03:49:17;;;;;;;29.23;8.28;;;;;;;15.22;76.16;98271.75;2181885;81;21110;-63
2021/08/01 03:52:18;;;;;;;21.45;7.60;;;;;;;15.18;75.88;98267.22;2182106;82;21065;-65
2021/08/01 03:55:18;;;;;;;25.57;9.23;;;;;;;15.18;76.38;98262.43;2182263;81;20958;-62
2021/08/01 03:58:18;;;;;;;18.23;5.70;;;;;;;15.24;76.08;98260.09;2181980;82;20935;-60
2021/08/01 04:01:19;;;;;;;22.75;7.95;;;;;;;15.29;76.09;98262.31;2182100;82;21022;-60
2021/08/01 04:04:19;;;;;;;23.67;9.45;;;;;;;15.29;76.17;98270.23;2182124;82;21436;-63
2021/08/01 04:07:20;;;;;;;23.20;9.03;;;;;;;15.42;76.33;98280.55;2182077;82;21018;-63
2021/08/01 04:10:20;;;;;;;21.85;8.15;;;;;;;15.56;76.11;98280.14;2182097;82;21022;-68
2021/08/01 04:13:21;;;;;;;22.05;8.08;;;;;;;15.67;76.00;98276.50;2182235;82;21037;-64
2021/08/01 04:16:22;;;;;;;21.97;8.10;;;;;;;15.87;76.09;98268.11;2181563;82;21014;-64
2021/08/01 04:19:22;;;;;;;23.85;7.17;;;;;;;15.97;75.55;98254.05;2182122;81;21047;-62
2021/08/01 04:22:22;;;;;;;24.05;8.20;;;;;;;16.05;75.05;98251.54;2182105;82;21468;-61
2021/08/01 04:25:23;;;;;;;24.63;8.40;;;;;;;16.02;75.11;98247.83;2181995;82;20978;-66
2021/08/01 04:28:23;;;;;;;22.95;9.23;;;;;;;16.01;75.26;98246.18;2182205;82;21047;-64
2021/08/01 04:31:24;;;;;;;26.85;9.90;;;;;;;16.08;75.40;98240.67;2182192;82;20970;-61
2021/08/01 04:34:24;;;;;;;28.60;9.10;;;;;;;16.22;75.60;98236.24;2182325;82;21015;-60
2021/08/01 04:37:25;;;;;;;24.40;9.30;;;;;;;16.45;75.62;98239.86;2181956;82;20994;-66
2021/08/01 04:40:26;;;;;;;24.77;9.58;;;;;;;16.69;75.71;98251.23;2181919;82;21033;-65
2021/08/01 04:43:26;;;;;;;25.85;10.90;;;;;;;17.04;75.84;98256.33;2181880;82;21057;-64
2021/08/01 04:46:27;;;;;;;26.12;11.70;;;;;;;17.46;75.42;98254.42;2181711;82;21010;-61
2021/08/01 04:49:28;;;;;;;30.17;12.82;;;;;;;17.84;74.68;98254.24;2172860;81;21007;-61
2021/08/01 04:52:28;;;;;;;30.40;13.62;;;;;;;18.16;74.63;98256.34;2172086;81;20955;-59
2021/08/01 04:55:30;;;;;;;28.10;13.98;;;;;;;18.46;74.33;98256.00;2172216;81;20971;-63
2021/08/01 04:58:31;;;;;;;26.73;12.98;;;;;;;18.70;73.18;98256.16;2172426;82;21494;-67
2021/08/01 05:01:31;;;;;;;25.30;12.25;;;;;;;18.81;73.33;98251.54;2172290;81;20971;-63
2021/08/01 05:04:31;;;;;;;25.92;11.57;;;;;;;18.83;72.57;98249.06;2172193;81;20986;-59
2021/08/01 05:07:32;;;;;;;25.10;10.50;;;;;;;18.97;72.81;98247.63;2171671;82;21053;-66
2021/08/01 05:10:32;;;;;;;23.80;11.18;;;;;;;19.09;72.10;98248.66;2172301;81;21512;-63
2021/08/01 05:13:33;;;;;;;27.05;11.03;;;;;;;19.11;72.43;98248.84;2172088;81;20994;-59
2021/08/01 05:16:33;;;;;;;26.85;10.65;;;;;;;19.11;72.46;98251.50;2172097;81;21029;-63
2021/08/01 05:19:34;;;;;;;26.20;10.25;;;;;;;19.12;72.71;98253.65;2172349;82;20979;-61
2021/08/01 05:22:34;;;;;;;28.70;11.28;;;;;;;19.17;72.94;98250.84;2172416;81;21033;-59
2021/08/01 05:25:35;;;;;;;23.25;9.80;;;;;;;19.18;72.78;98249.86;2172155;81;20967;-61
2021/08/01 05:28:35;;;;;;;23.22;9.88;;;;;;;19.22;72.70;98250.34;2172077;82;21034;-62
2021/08/01 05:31:35;;;;;;;25.65;9.70;;;;;;;19.30;72.07;98241.06;2172027;81;21484;-63
2021/08/01 05:34:36;;;;;;;23.57;10.50;;;;;;;19.34;71.28;98247.72;2171986;81;20972;-60
2021/08/01 05:37:36;;;;;;;23.00;9.10;;;;;;;19.32;71.36;98239.57;2171993;81;21043;-61
2021/08/01 05:40:37;;;;;;;24.67;10.13;;;;;;;19.35;71.63;98235.25;2172174;81;21038;-63
2021/08/01 05:43:39;;;;;;;24.82;9.75;;;;;;;19.42;72.08;98240.24;2172119;81;20974;-59
2021/08/01 05:46:39;;;;;;;24.23;9.93;;;;;;;19.43;71.68;98232.61;2161538;82;21537;-66
2021/08/01 05:49:40;;;;;;;24.12;10.00;;;;;;;19.50;71.65;98250.90;2172077;81;20967;-60
2021/08/01 05:52:40;;;;;;;25.08;9.63;;;;;;;19.69;71.69;98259.05;2172143;81;21005;-63
2021/08/01 05:55:41;;;;;;;24.15;10.43;;;;;;;19.88;71.35;98259.27;2172344;81;21037;-63
2021/08/01 05:58:41;;;;;;;24.75;10.60;;;;;;;20.07;70.83;98257.27;2172201;81;20974;-60
2021/08/01 06:01:42;;;;;;;21.75;9.80;;;;;;;20.14;70.15;98269.38;2171942;82;21105;-61
2021/08/01 06:04:42;;;;;;;23.50;9.90;;;;;;;20.08;69.27;98271.73;2172041;81;21553;-62
2021/08/01 06:07:43;;;;;;;24.20;10.88;;;;;;;20.20;69.52;98263.37;2171788;81;21039;-64
2021/08/01 06:10:45;;;;;;;24.85;9.80;;;;;;;20.33;69.60;98263.70;2161276;82;21018;-65
2021/08/01 06:13:48;;;;;;;26.85;10.10;;;;;;;20.48;68.53;98267.00;2161639;82;21006;-59
2021/08/01 06:16:49;;;;;;;24.77;10.10;;;;;;;20.54;67.98;98269.81;2172249;82;21089;-64
2021/08/01 06:19:49;;;;;;;24.32;9.40;;;;;;;20.74;68.30;98260.11;2172147;81;20974;-59
2021/08/01 06:22:49;;;;;;;23.67;9.65;;;;;;;20.93;67.64;98257.05;2172246;81;20939;-61
2021/08/01 06:25:50;;;;;;;22.90;10.48;;;;;;;21.09;67.41;98252.64;2172206;81;20975;-66
2021/08/01 06:28:50;;;;;;;27.55;10.70;;;;;;;21.10;66.84;98248.95;2172187;81;20955;-61
2021/08/01 06:31:52;;;;;;;26.55;10.10;;;;;;;20.97;66.82;98258.84;2172013;81;21030;-59
2021/08/01 06:34:54;;;;;;;24.45;10.98;;;;;;;20.91;66.91;98267.54;2160649;82;21026;-63
2021/08/01 06:37:55;;;;;;;25.72;11.35;;;;;;;20.94;67.19;98273.86;2172318;82;21560;-61
2021/08/01 06:40:55;;;;;;;25.70;11.18;;;;;;;20.99;66.75;98267.99;2172362;81;20993;-66
2021/08/01 06:43:55;;;;;;;26.30;10.65;;;;;;;21.06;67.07;98259.14;2172191;81;21015;-63
2021/08/01 06:46:56;;;;;;;24.43;11.50;;;;;;;21.14;66.67;98254.27;2172547;81;20966;-63
2021/08/01 06:49:56;;;;;;;27.35;10.93;;;;;;;21.34;66.75;98257.83;2180889;81;20957;-63
2021/08/01 06:53:00;;;;;;;24.82;11.18;;;;;;;21.52;66.40;98250.40;2182044;81;21003;-60
2021/08/01 06:56:00;;;;;;;23.80;10.53;;;;;;;21.55;66.04;98245.19;2182508;81;21460;-61
2021/08/01 06:59:01;;;;;;;25.12;10.65;;;;;;;21.51;65.75;98243.39;2182277;82;21022;-62
2021/08/01 07:02:01;;;;;;;23.75;11.12;;;;;;;;;;2182469;82;21049;-60
2021/08/01 07:05:02;;;;;;;25.55;10.65;;;;;;;21.13;66.35;98239.26;2182181;81;21066;-62
2021/08/01 07:08:02;;;;;;;24.60;10.53;;;;;;;20.96;66.20;98241.69;2182408;81;21553;-60
2021/08/01 07:11:05;;;;;;;24.85;10.13;;;;;;;20.80;66.52;98243.42;2163009;82;20971;-62
2021/08/01 07:14:05;;;;;;;25.17;9.93;;;;;;;20.76;66.98;98251.45;2182428;82;21512;-60
2021/08/01 07:17:06;;;;;;;22.52;9.98;;;;;;;20.78;67.50;98246.77;2182433;82;21540;-59
2021/08/01 07:20:06;;;;;;;24.77;9.25;;;;;;;20.82;67.70;98246.77;2182066;82;21002;-64
2021/08/01 07:23:09;;;;;;;22.25;9.48;;;;;;;20.88;67.57;98247.39;2182285;82;21026;-61
2021/08/01 07:26:09;;;;;;;23.30;8.98;;;;;;;21.01;67.19;98251.34;2162070;82;21042;-59
2021/08/01 07:29:09;;;;;;;24.63;9.80;;;;;;;21.09;66.97;98249.45;2182167;82;21033;-63
2021/08/01 07:32:10;;;;;;;23.90;9.38;;;;;;;21.26;66.88;98249.35;2182688;81;20978;-66
2021/08/01 07:35:10;;;;;;;23.92;9.98;;;;;;;21.45;66.54;98248.91;2182444;81;20979;-61
2021/08/01 07:38:11;;;;;;;21.55;9.53;;;;;;;21.54;66.28;98240.37;2182274;82;21010;-62
2021/08/01 07:41:11;;;;;;;23.85;9.70;;;;;;;21.61;66.25;98237.83;2182039;82;21002;-62
2021/08/01 07:44:12;;;;;;;24.00;10.00;;;;;;;21.71;65.82;98230.91;2181859;82;21651;-60
2021/08/01 07:47:12;;;;;;;22.87;9.45;;;;;;;21.70;65.49;98227.40;2182114;82;21606;-62
2021/08/01 07:50:13;;;;;;;23.25;9.13;;;;;;;21.61;65.33;98213.81;2172954;81;21018;-65
2021/08/01 07:53:13;;;;;;;24.90;9.40;;;;;;;21.46;65.21;98209.22;2172494;81;21001;-60
2021/08/01 07:56:14;;;;;;;23.52;8.88;;;;;;;;;;2172021;81;21002;-64
2021/08/01 07:59:14;;;;;;;23.40;8.90;;;;;;;21.21;65.75;98210.40;2172235;81;21011;-60
2021/08/01 08:02:15;;;;;;;23.05;8.80;;;;;;;21.15;66.35;98207.94;2172523;81;21564;-61
2021/08/01 08:05:15;;;;;;;23.32;8.55;;;;;;;21.16;66.36;98209.61;2172554;81;21010;-66
2021/08/01 08:08:16;;;;;;;23.52;8.70;;;;;;;21.22;66.19;98209.37;2172160;81;21029;-63
2021/08/01 08:11:19;;;;;;;20.68;8.88;;;;;;;21.26;65.98;98207.53;2171745;82;21109;-60
2021/08/01 08:17:22;;;;;;;22.00;8.90;;;;;;;21.34;65.96;98207.15;2161937;82;21030;-59
2021/08/01 08:20:22;;;;;;;23.05;8.93;;;;;;;21.38;65.68;98200.45;2172337;81;20974;-63
2021/08/01 08:23:23;;;;;;;21.33;8.15;;;;;;;21.37;65.97;98196.13;2172435;81;21506;-59
2021/08/01 08:26:24;;;;;;;24.98;8.35;;;;;;;21.41;66.09;98186.24;2172319;81;21516;-62
2021/08/01 08:29:24;;;;;;;23.52;7.87;;;;;;;21.43;65.45;98173.57;2172071;81;21053;-65
2021/08/01 08:32:25;;;;;;;23.22;8.43;;;;;;;21.46;65.24;98159.88;2172317;82;20962;-60
2021/08/01 08:35:26;;;;;;;22.85;7.90;;;;;;;21.60;65.29;98154.27;2172455;82;20935;-63
2021/08/01 08:38:26;;;;;;;26.87;11.27;;;;;;;21.77;64.74;98158.13;2172546;81;21018;-62
2021/08/01 08:41:27;;;;;;;23.87;9.07;;;;;;;21.88;64.48;98145.67;2172523;82;21082;-59
2021/08/01 08:44:28;;;;;;;21.82;7.25;;;;;;;22.09;64.27;98135.58;2172708;81;21009;-59
2021/08/01 08:47:29;;;;;;;22.77;7.20;;;;;;;22.40;63.27;98130.59;2172196;81;21021;-59
2021/08/01 08:50:30;;;;;;;21.77;7.20;;;;;;;22.68;62.98;98139.23;2181136;81;21088;-63
2021/08/01 08:53:30;;;;;;;20.50;7.53;;;;;;;22.88;63.38;98131.44;2182241;81;21037;-59
2021/08/01 08:56:31;;;;;;;20.37;7.77;;;;;;;22.92;62.44;98133.23;2182317;82;20975;-59
2021/08/01 08:59:31;;;;;;;22.40;7.47;;;;;;;22.83;63.15;98137.88;2182291;82;21513;-60
2021/08/01 09:02:34;;;;;;;21.33;8.40;;;;;;;22.74;63.16;98134.98;2182182;82;21494;-61
2021/08/01 09:05:34;;;;;;;22.93;8.38;;;;;;;22.68;63.29;98133.89;2181956;82;21002;-59
2021/08/01 09:08:36;;;;;;;21.40;7.80;;;;;;;22.61;63.60;98132.49;2182111;82;21124;-63
2021/08/01 09:11:36;;;;;;;22.70;9.83;;;;;;;22.55;63.39;98123.88;2182215;82;21025;-66
2021/08/01 09:14:37;;;;;;;22.63;8.33;;;;;;;22.47;63.27;98120.81;2182398;82;21015;-67
2021/08/01 09:17:38;;;;;;;22.87;8.20;;;;;;;22.36;63.60;98124.47;2181716;82;21104;-63
2021/08/01 09:20:39;;;;;;;20.43;8.07;;;;;;;22.32;64.11;98121.30;2182344;82;21017;-61
2021/08/01 09:23:39;;;;;;;21.80;7.95;;;;;;;22.31;63.87;98100.94;2182271;82;20986;-62
2021/08/01 09:26:40;;;;;;;20.53;7.63;;;;;;;22.27;63.97;98105.84;2181806;81;21050;-60
2021/08/01 09:29:40;;;;;;;21.53;7.90;;;;;;;22.26;63.97;98106.84;2182551;82;20975;-60
2021/08/01 09:32:41;;;;;;;23.62;8.48;;;;;;;22.31;64.01;98105.80;2182338;82;21041;-66
2021/08/01 09:35:41;;;;;;;23.83;8.40;;;;;;;22.37;64.40;98104.73;2182205;82;21592;-61
2021/08/01 09:38:42;;;;;;;23.70;8.23;;;;;;;22.41;64.42;98094.00;2182153;82;21550;-60
2021/08/01 09:41:42;;;;;;;22.37;8.67;;;;;;;22.44;64.24;98094.47;2182073;82;20987;-63
2021/08/01 09:44:43;;;;;;;23.57;8.45;;;;;;;22.48;64.14;98096.25;2181795;81;21042;-59
2021/08/01 09:47:43;;;;;;;24.43;8.53;;;;;;;22.56;64.26;98092.66;2182415;81;20983;-62
2021/08/01 09:50:44;;;;;;;21.50;8.40;;;;;;;22.71;64.37;98095.27;2181968;81;21038;-63
2021/08/01 09:53:44;;;;;;;23.70;7.87;;;;;;;22.77;64.34;98093.16;2182758;82;20947;-65
2021/08/01 09:56:45;;;;;;;20.30;8.03;;;;;;;22.83;64.44;98095.92;2182322;81;21036;-66
2021/08/01 09:59:45;;;;;;;22.03;8.57;;;;;;;22.95;64.48;98093.56;2182209;82;21578;-61
2021/08/01 10:02:45;;;;;;;21.87;8.30;;;;;;;23.10;64.81;98098.02;2182109;82;21481;-59
2021/08/01 10:05:46;;;;;;;23.73;9.33;;;;;;;23.23;65.10;98093.33;2182142;82;21014;-62
2021/08/01 10:08:48;;;;;;;21.50;8.10;;;;;;;23.28;65.00;98091.73;2162716;82;20983;-59
2021/08/01 10:11:49;;;;;;;21.50;8.80;;;;;;;23.27;65.11;98086.05;2181996;81;21019;-60
2021/08/01 10:14:49;;;;;;;22.23;8.73;;;;;;;23.17;65.07;98082.39;2182109;81;21434;-63
2021/08/01 10:17:50;;;;;;;20.63;9.23;;;;;;;23.11;65.55;98090.34;2182206;82;21498;-62
2021/08/01 10:20:50;;;;;;;26.60;10.30;;;;;;;23.11;65.56;98095.70;2182115;81;20970;-59
2021/08/01 10:23:51;;;;;;;22.37;9.80;;;;;;;22.80;65.97;98112.34;2182147;82;20971;-62
2021/08/01 10:26:51;;;;;;;23.43;9.60;;;;;;;22.44;67.15;98102.97;2182277;81;21014;-60
2021/08/01 10:29:52;;;;;;;23.10;9.60;;;;;;;22.19;67.47;98083.23;2182423;82;21034;-65
2021/08/01 10:32:53;;;;;;;25.13;10.33;;;;;;;22.20;67.77;98071.55;2182412;81;21081;-61
2021/08/01 10:35:55;;;;;;;24.12;10.10;;;;;;;22.52;67.95;98039.27;2163092;82;20998;-60
2021/08/01 10:38:56;;;;;;;23.03;9.80;;;;;;;22.86;67.23;98029.71;2182149;82;21053;-60
2021/08/01 10:41:56;;;;;;;27.80;10.23;;;;;;;23.07;67.44;98016.31;2182375;82;20963;-66
2021/08/01 10:44:57;;;;;;;23.37;9.63;;;;;;;23.20;66.40;98004.92;2182367;82;21488;-60
2021/08/01 10:47:57;;;;;;;21.50;8.70;;;;;;;23.31;67.31;97998.22;2182312;82;21557;-59
2021/08/01 10:50:58;;;;;;;22.07;9.57;;;;;;;23.47;66.80;97989.87;2172810;81;21147;-62
2021/08/01 10:53:58;;;;;;;22.37;9.77;;;;;;;23.57;66.22;97980.16;2172189;82;21013;-63
2021/08/01 10:56:59;;;;;;;24.97;10.07;;;;;;;23.68;66.51;97970.76;2172491;81;20944;-63
2021/08/01 11:00:00;;;;;;;22.10;9.10;;;;;;;23.85;67.32;97972.06;2172535;82;20956;-61
2021/08/01 11:03:01;;;;;;;22.82;8.63;;;;;;;24.08;66.31;97969.61;2172106;81;21038;-61
2021/08/01 11:06:01;;;;;;;21.97;8.47;;;;;;;24.24;63.42;97962.21;2172265;81;21509;-67
2021/08/01 11:09:02;;;;;;;24.80;8.50;;;;;;;24.28;64.91;97970.16;2172105;81;20983;-65
2021/08/01 11:12:02;;;;;;;23.83;8.57;;;;;;;24.43;64.44;97963.30;2172513;81;20982;-62
2021/08/01 11:15:03;;;;;;;27.30;8.53;;;;;;;24.72;63.56;97969.66;2172326;81;20949;-62
2021/08/01 11:18:03;;;;;;;24.47;7.90;;;;;;;25.30;62.83;97970.86;2172540;81;20982;-65
2021/08/01 11:21:04;;;;;;;21.80;7.93;;;;;;;26.23;61.89;97978.31;2172471;81;20999;-63
2021/08/01 11:24:05;;;;;;;20.40;7.70;;;;;;;26.96;58.51;97983.20;2172275;82;20999;-60
2021/08/01 11:27:06;;;;;;;22.37;7.70;;;;;;;26.93;58.51;97978.27;2172428;81;21489;-60
2021/08/01 11:30:06;;;;;;;22.70;8.00;;;;;;;26.80;57.36;97977.86;2172527;81;21025;-65
2021/08/01 11:33:06;;;;;;;20.03;7.50;;;;;;;26.86;56.76;97975.34;2172485;81;21057;-61
2021/08/01 11:36:08;;;;;;;19.52;7.40;;;;;;;26.83;56.63;97973.91;2172222;82;21010;-60
2021/08/01 11:39:08;;;;;;;19.13;7.20;;;;;;;26.77;56.14;97985.02;2172505;81;20994;-63
2021/08/01 11:42:08;;;;;;;23.87;8.03;;;;;;;26.75;56.77;97980.90;2172410;81;21512;-66
2021/08/01 11:45:13;;;;;;;19.47;7.30;;;;;;;26.88;57.14;97986.20;2172393;81;20970;-63
2021/08/01 11:48:11;;;;;;;20.50;7.70;;;;;;;26.96;56.79;97983.20;2161964;82;20994;-62
2021/08/01 11:51:11;;;;;;;19.50;7.60;;;;;;;27.12;56.05;97985.89;2181033;81;21067;-65
2021/08/01 11:54:12;;;;;;;21.07;8.17;;;;;;;27.23;56.25;97981.63;2182599;82;20970;-60
2021/08/01 11:57:12;;;;;;;20.80;8.00;;;;;;;27.27;56.05;97980.16;2182767;81;21025;-61
2021/08/01 12:00:13;;;;;;;18.90;7.40;;;;;;;27.22;55.47;97985.36;2182589;82;20986;-61
2021/08/01 12:03:13;;;;;;;19.97;8.17;;;;;;;27.09;55.68;97984.96;2182232;82;21061;-59
2021/08/01 12:06:14;;;;;;;18.70;7.73;;;;;;;27.03;55.83;97965.67;2182468;82;21002;-65
2021/08/01 12:09:15;;;;;;;20.70;7.60;;;;;;;27.12;56.04;97963.02;2181886;82;20999;-64
2021/08/01 12:12:16;;;;;;;21.33;7.72;;;;;;;27.28;56.32;97965.66;2182220;82;20982;-62
2021/08/01 12:15:16;;;;;;;21.67;7.80;;;;;;;27.25;55.29;97967.95;2182369;82;21485;-62
2021/08/01 12:18:16;;;;;;;21.57;7.50;;;;;;;26.97;55.46;97962.00;2182348;82;20970;-61
2021/08/01 12:21:17;;;;;;;22.50;8.23;;;;;;;27.00;55.63;97957.23;2182360;82;20986;-63
2021/08/01 12:24:17;;;;;;;21.97;7.63;;;;;;;27.05;55.59;97952.00;2182473;82;21038;-66
2021/08/01 12:27:18;;;;;;;22.43;8.17;;;;;;;26.88;54.15;97936.43;2182523;81;20998;-61
2021/08/01 12:30:20;;;;;;;23.70;7.97;;;;;;;26.56;54.99;97933.73;2182346;82;20974;-63
2021/08/01 12:33:20;;;;;;;25.70;8.18;;;;;;;26.40;55.60;97933.75;2182141;82;21026;-61
2021/08/01 12:36:21;;;;;;;18.60;8.00;;;;;;;26.10;55.39;97927.66;2182242;82;20982;-62
2021/08/01 12:39:22;;;;;;;21.37;7.60;;;;;;;26.05;55.09;97901.95;2182173;82;20986;-60
2021/08/01 12:42:23;;;;;;;21.45;8.30;;;;;;;26.10;55.21;97908.01;2182360;82;21006;-61
2021/08/01 12:45:24;;;;;;;21.07;8.08;;;;;;;26.22;55.38;97912.16;2182193;82;21009;-63
2021/08/01 12:48:24;;;;;;;25.47;8.43;;;;;;;26.23;55.02;97921.38;2182265;82;21442;-65
2021/08/01 12:51:25;;;;;;;18.80;8.23;;;;;;;26.30;54.59;97933.41;2182001;81;21109;-60
2021/08/01 12:54:25;;;;;;;18.73;7.13;;;;;;;26.28;54.87;97939.01;2182620;82;20975;-66
2021/08/01 12:57:26;;;;;;;21.00;7.37;;;;;;;26.37;54.67;97931.50;2182437;82;20958;-65
2021/08/01 13:00:29;;;;;;;21.27;7.00;;;;;;;26.45;54.56;97935.81;2182396;82;20954;-63
2021/08/01 13:03:28;;;;;;;23.45;7.25;;;;;;;26.50;54.21;97937.31;2162092;82;21456;-61
2021/08/01 13:06:29;;;;;;;20.67;7.07;;;;;;;26.55;54.50;97929.92;2182526;82;20974;-61
2021/08/01 13:09:30;;;;;;;20.10;7.58;;;;;;;26.77;54.08;97911.59;2181828;82;21014;-61
2021/08/01 13:12:30;;;;;;;20.10;7.17;;;;;;;26.91;54.08;97909.59;2182475;81;21021;-63
2021/08/01 13:15:32;;;;;;;23.10;7.67;;;;;;;27.03;54.75;97925.31;2182357;81;21002;-61
2021/08/01 13:18:33;;;;;;;20.95;7.70;;;;;;;27.09;54.63;97928.45;2182165;82;20982;-59
2021/08/01 13:21:34;;;;;;;20.05;7.40;;;;;;;27.12;55.04;97917.77;2182168;82;21013;-62
2021/08/01 13:24:34;;;;;;;21.10;8.90;;;;;;;27.05;54.75;97934.50;2181986;82;21525;-60
2021/08/01 13:27:35;;;;;;;23.87;8.20;;;;;;;26.85;54.77;97938.22;2182518;82;21086;-60
2021/08/01 13:30:36;;;;;;;19.83;8.20;;;;;;;26.79;55.59;97931.01;2182266;82;20986;-61
2021/08/01 13:33:36;;;;;;;19.60;7.87;;;;;;;26.84;55.92;97928.49;2182350;81;20954;-64
2021/08/01 13:36:36;;;;;;;19.83;8.10;;;;;;;26.88;55.63;97931.55;2182451;81;20978;-60
2021/08/01 13:39:37;;;;;;;21.33;8.63;;;;;;;26.91;55.66;97933.80;2182246;82;20966;-60
2021/08/01 13:42:37;;;;;;;22.03;8.47;;;;;;;27.16;55.59;97923.02;2182399;82;21025;-60
2021/08/01 13:45:38;;;;;;;21.23;8.67;;;;;;;27.31;55.45;97910.02;2182414;82;20979;-61
2021/08/01 13:48:38;;;;;;;22.63;9.07;;;;;;;27.36;54.99;97910.72;2182428;82;20994;-62
2021/08/01 13:51:39;;;;;;;21.77;8.68;;;;;;;27.33;55.07;97906.30;2181605;81;21010;-62
2021/08/01 13:54:40;;;;;;;20.83;7.77;;;;;;;27.18;54.90;97904.77;2182247;82;21478;-60
2021/08/01 13:57:41;;;;;;;21.12;8.38;;;;;;;27.11;55.40;97901.31;2182029;82;21497;-62
2021/08/01 14:00:42;;;;;;;21.13;8.57;;;;;;;27.17;55.54;97903.64;2182212;81;21065;-62
2021/08/01 14:03:44;;;;;;;19.60;8.10;;;;;;;27.36;55.67;97908.56;2182112;82;21021;-60
2021/08/01 14:06:44;;;;;;;21.52;7.60;;;;;;;27.83;55.49;97905.59;2181970;82;20994;-64
2021/08/01 14:09:45;;;;;;;20.60;7.97;;;;;;;28.41;54.83;97916.82;2181745;82;21555;-60